Time;durP1;ratioP1;P1;durP2;ratioP2;P2;SDS_P1;SDS_P2;PMS_P1;PMS_P2;Temp;Humidity;BMP_temperature;BMP_pressure;BME280_temperature;BME280_humidity;BME280_pressure;Samples;Min_cycle;Max_cycle;Signal;HPM_P1;HPM_P2
2023/10/21 00:01:40;;;;;;;16.37;9.80;;;;;;;14.20;76.95;96776.59;5008277;28;20282;-69
2023/10/21 00:04:07;;;;;;;16.40;9.83;;;;;;;14.27;77.04;96777.03;5006883;28;20209;-71
2023/10/21 00:06:34;;;;;;;17.00;9.43;;;;;;;14.18;77.25;96773.25;5007939;28;20202;-69
2023/10/21 00:09:01;;;;;;;13.77;9.50;;;;;;;13.94;77.52;96776.59;5006360;28;20191;-70
2023/10/21 00:11:29;;;;;;;13.43;9.93;;;;;;;13.97;77.39;96773.81;5007470;28;20229;-69
2023/10/21 00:13:57;;;;;;;15.23;8.43;;;;;;;13.95;77.83;96776.47;5007651;28;20242;-69
2023/10/21 00:16:24;;;;;;;13.83;8.53;;;;;;;13.82;78.09;96786.03;5006887;28;20232;-69
2023/10/21 00:18:51;;;;;;;15.83;9.00;;;;;;;13.98;77.85;96776.31;5008032;28;20713;-68
2023/10/21 00:21:19;;;;;;;15.87;9.40;;;;;;;14.09;77.10;96775.63;5006549;28;20234;-69
2023/10/21 00:23:46;;;;;;;13.63;8.13;;;;;;;14.18;76.08;96777.66;5007914;28;20268;-69
2023/10/21 00:26:15;;;;;;;14.63;9.10;;;;;;;14.22;76.13;96773.91;5007184;28;20773;-70
2023/10/21 00:28:49;;;;;;;12.00;9.57;;;;;;;13.92;76.74;96762.84;5005676;28;20186;-71
2023/10/21 00:31:19;;;;;;;13.17;8.37;;;;;;;13.98;77.36;96768.50;5007849;28;20276;-70
2023/10/21 00:33:47;;;;;;;14.23;7.90;;;;;;;14.01;77.05;96768.31;5006310;28;20221;-71
2023/10/21 00:36:15;;;;;;;14.27;8.30;;;;;;;13.98;76.96;96776.31;5006433;28;20298;-69
2023/10/21 00:38:42;;;;;;;9.37;7.17;;;;;;;13.77;77.79;96773.28;5005183;28;20201;-69
2023/10/21 00:41:09;;;;;;;11.90;8.50;;;;;;;13.89;77.46;96785.53;5007601;28;20719;-74
2023/10/21 00:43:42;;;;;;;12.63;7.77;;;;;;;13.73;77.96;96765.75;5007019;28;20191;-69
2023/10/21 00:46:17;;;;;;;10.60;7.07;;;;;;;13.67;79.04;96779.16;5006783;28;20210;-72
2023/10/21 00:48:45;;;;;;;13.50;6.97;;;;;;;13.67;78.42;96753.13;5006265;28;20284;-70
2023/10/21 00:51:13;;;;;;;9.13;6.67;;;;;;;13.70;78.17;96763.38;5005036;28;20233;-71
2023/10/21 00:53:40;;;;;;;12.93;7.20;;;;;;;13.80;77.77;96767.06;5006243;28;20781;-69
2023/10/21 00:56:08;;;;;;;9.90;6.87;;;;;;;14.00;78.08;96774.44;5006377;28;20279;-69
2023/10/21 00:58:36;;;;;;;9.60;6.80;;;;;;;13.80;78.10;96757.50;5007524;28;20570;-69
2023/10/21 01:01:09;;;;;;;9.73;7.30;;;;;;;13.95;77.16;96752.25;5006833;28;20277;-69
2023/10/21 01:03:37;;;;;;;12.07;7.43;;;;;;;14.00;77.54;96784.84;5005139;28;20681;-69
2023/10/21 01:06:05;;;;;;;12.57;7.43;;;;;;;14.01;77.50;96777.88;5007317;28;20218;-68
2023/10/21 01:08:42;;;;;;;12.13;7.37;;;;;;;14.04;78.16;96775.91;5006319;28;20205;-68
2023/10/21 01:11:10;;;;;;;12.00;7.03;;;;;;;14.06;78.04;96771.44;5007564;28;20199;-74
2023/10/21 01:13:38;;;;;;;11.17;7.00;;;;;;;14.03;78.12;96778.63;5006149;28;20323;-69
2023/10/21 01:16:05;;;;;;;13.63;7.43;;;;;;;14.17;77.52;96778.56;5007032;28;20207;-68
2023/10/21 01:18:34;;;;;;;9.53;7.33;;;;;;;14.15;77.53;96799.53;5007032;28;20207;-68
2023/10/21 01:21:02;;;;;;;14.97;7.43;;;;;;;14.27;76.77;96788.31;5008069;28;20556;-69
2023/10/21 01:23:31;;;;;;;12.23;7.60;;;;;;;14.35;75.70;96798.25;5011125;28;20700;-69
2023/10/21 01:25:59;;;;;;;11.27;7.23;;;;;;;14.46;75.57;96799.25;5009597;28;20285;-70
2023/10/21 01:28:26;;;;;;;15.60;7.90;;;;;;;14.30;76.17;96789.91;5011119;28;20193;-69
2023/10/21 01:30:53;;;;;;;12.17;7.70;;;;;;;14.44;75.40;96795.91;5009706;28;20209;-68
2023/10/21 01:33:21;;;;;;;12.33;7.70;;;;;;;14.42;74.86;96787.38;5010932;28;20226;-70
2023/10/21 01:35:48;;;;;;;12.57;7.93;;;;;;;14.34;74.99;96787.00;5010966;28;20203;-69
2023/10/21 01:38:15;;;;;;;12.77;7.50;;;;;;;14.26;74.64;96797.03;5010034;28;20352;-72
2023/10/21 01:40:43;;;;;;;10.27;7.57;;;;;;;14.09;75.23;96775.63;5010856;28;20205;-69
2023/10/21 01:43:11;;;;;;;12.60;7.90;;;;;;;14.14;74.27;96791.78;5009556;28;20213;-70
2023/10/21 01:45:38;;;;;;;12.80;7.93;;;;;;;14.01;74.94;96770.06;5009727;28;20191;-70
2023/10/21 01:48:08;;;;;;;13.03;7.80;;;;;;;14.15;74.87;96788.25;5008220;28;20274;-70
2023/10/21 01:50:37;;;;;;;17.00;8.43;;;;;;;14.33;74.21;96793.16;5010431;28;20747;-70
2023/10/21 01:53:05;;;;;;;14.90;9.13;;;;;;;14.15;74.02;96773.47;5010097;28;20205;-73
2023/10/21 01:55:33;;;;;;;16.27;9.23;;;;;;;14.01;74.51;96793.50;5008470;28;20315;-73
2023/10/21 01:58:01;;;;;;;15.70;9.63;;;;;;;14.25;73.48;96789.34;5009075;28;20223;-70
2023/10/21 02:00:28;;;;;;;15.70;8.80;;;;;;;14.03;74.15;96797.69;5007799;28;20203;-69
2023/10/21 02:02:56;;;;;;;12.23;8.27;;;;;;;13.88;74.79;96794.28;5009227;28;20226;-69
2023/10/21 02:05:25;;;;;;;10.13;7.70;;;;;;;13.81;74.34;96784.34;5007891;28;20444;-71
2023/10/21 02:07:52;;;;;;;14.63;9.17;;;;;;;13.88;74.73;96788.25;5010420;28;20198;-72
2023/10/21 02:10:19;;;;;;;16.30;7.93;;;;;;;13.84;74.55;96794.56;5009487;28;20652;-72
2023/10/21 02:12:47;;;;;;;14.57;8.87;;;;;;;13.69;75.24;96774.69;5009461;28;20210;-70
2023/10/21 02:15:17;;;;;;;12.53;8.40;;;;;;;13.64;75.16;96780.19;5009939;28;20229;-68
2023/10/21 02:17:45;;;;;;;15.73;9.17;;;;;;;13.75;74.98;96808.13;5008909;28;20199;-69
2023/10/21 02:20:14;;;;;;;12.73;8.77;;;;;;;13.74;74.56;96806.47;5008719;28;20217;-72
2023/10/21 02:22:42;;;;;;;17.50;9.70;;;;;;;13.64;74.72;96787.97;5007506;28;20193;-69
2023/10/21 02:25:13;;;;;;;17.27;10.13;;;;;;;13.78;74.20;96810.56;5009802;28;20281;-69
2023/10/21 02:27:43;;;;;;;27.57;10.50;;;;;;;13.89;73.15;96813.31;5007893;28;20202;-70
2023/10/21 02:30:13;;;;;;;16.37;9.17;;;;;;;13.94;73.62;96813.88;5009186;28;20257;-71
2023/10/21 02:32:45;;;;;;;16.07;9.80;;;;;;;13.38;74.57;96811.31;5007427;28;20680;-69
2023/10/21 02:35:14;;;;;;;15.30;9.40;;;;;;;13.04;75.67;96815.94;5008653;28;20788;-69
2023/10/21 02:37:42;;;;;;;15.70;8.33;;;;;;;13.11;75.88;96800.00;5008487;28;20701;-70
2023/10/21 02:40:15;;;;;;;15.63;8.30;;;;;;;13.13;76.23;96811.94;5007052;28;20233;-72
2023/10/21 02:42:43;;;;;;;16.10;8.47;;;;;;;13.20;75.89;96813.28;5009545;28;20690;-70
2023/10/21 02:45:12;;;;;;;16.80;9.33;;;;;;;13.34;75.66;96820.22;5009460;28;20600;-69
2023/10/21 02:47:39;;;;;;;15.40;7.97;;;;;;;13.40;75.50;96825.06;5008636;28;20200;-70
2023/10/21 02:50:07;;;;;;;12.97;8.30;;;;;;;13.38;76.18;96838.16;5009445;28;20202;-69
2023/10/21 02:52:40;;;;;;;14.90;8.10;;;;;;;13.41;75.96;96827.59;5008036;28;20191;-69
2023/10/21 02:55:07;;;;;;;13.00;8.40;;;;;;;13.28;76.73;96836.22;5009277;28;20269;-70
2023/10/21 02:57:35;;;;;;;15.90;8.67;;;;;;;13.47;75.68;96832.44;5008040;28;20205;-69
2023/10/21 03:00:10;;;;;;;14.10;8.97;;;;;;;13.30;76.01;96834.34;5007906;28;20204;-69
2023/10/21 03:02:38;;;;;;;12.17;8.17;;;;;;;13.21;75.76;96845.31;5009160;28;20209;-69
2023/10/21 03:05:05;;;;;;;14.07;7.97;;;;;;;13.10;77.58;96845.09;5006714;28;20197;-70
2023/10/21 03:07:32;;;;;;;13.30;8.23;;;;;;;12.92;78.66;96844.41;5024348;28;20218;-71
2023/10/21 03:10:00;;;;;;;12.90;7.67;;;;;;;12.63;80.17;96848.63;5008014;28;20193;-68
2023/10/21 03:12:29;;;;;;;10.87;8.10;;;;;;;12.73;80.34;96846.38;5009015;28;20196;-69
2023/10/21 03:14:56;;;;;;;12.97;8.47;;;;;;;12.42;82.28;96836.03;5007590;28;20238;-69
2023/10/21 03:17:25;;;;;;;13.10;8.70;;;;;;;12.45;83.03;96834.09;5007504;28;20714;-69
2023/10/21 03:19:55;;;;;;;12.47;8.50;;;;;;;12.45;83.16;96841.91;5008520;28;20193;-72
2023/10/21 03:22:22;;;;;;;14.90;9.03;;;;;;;12.56;81.94;96846.50;5006278;28;20197;-70
2023/10/21 03:24:49;;;;;;;13.17;9.10;;;;;;;12.52;82.21;96852.78;5007762;28;20293;-68
2023/10/21 03:27:17;;;;;;;13.30;9.23;;;;;;;12.52;82.15;96853.63;5005962;28;20208;-68
2023/10/21 03:29:45;;;;;;;14.57;9.40;;;;;;;12.41;83.48;96855.13;5007429;28;20200;-71
2023/10/21 03:32:12;;;;;;;13.40;8.47;;;;;;;12.11;84.24;96805.78;5006228;28;20196;-68
2023/10/21 03:34:39;;;;;;;12.57;8.63;;;;;;;12.60;83.38;96854.03;5008324;28;20321;-74
2023/10/21 03:37:06;;;;;;;11.90;8.00;;;;;;;12.54;83.54;96845.75;5008388;28;20202;-70
2023/10/21 03:39:33;;;;;;;12.53;8.47;;;;;;;12.70;82.79;96859.53;5007546;28;20726;-69
2023/10/21 03:42:00;;;;;;;13.77;7.97;;;;;;;12.78;82.12;96837.38;5008601;28;20576;-71
2023/10/21 03:44:28;;;;;;;14.20;8.03;;;;;;;12.89;81.86;96855.81;5007026;28;20657;-69
2023/10/21 03:46:55;;;;;;;13.70;8.60;;;;;;;13.16;80.52;96857.75;5008565;28;20198;-69
2023/10/21 03:49:23;;;;;;;17.30;8.47;;;;;;;13.31;79.62;96860.28;5005656;28;20195;-69
2023/10/21 03:51:50;;;;;;;12.90;7.27;;;;;;;13.24;78.88;96839.91;5006955;28;20779;-70
2023/10/21 03:54:17;;;;;;;12.90;9.17;;;;;;;13.28;78.55;96839.66;5007805;28;20225;-72
2023/10/21 03:56:44;;;;;;;12.67;8.33;;;;;;;13.39;78.00;96849.41;5008029;28;20198;-68
2023/10/21 03:59:11;;;;;;;16.37;9.30;;;;;;;13.26;78.02;96840.66;5008180;28;20579;-69
2023/10/21 04:01:38;;;;;;;15.43;8.87;;;;;;;13.27;77.23;96818.94;5006873;28;20209;-69
2023/10/21 04:04:06;;;;;;;14.70;8.30;;;;;;;13.40;76.57;96836.31;5008194;28;20189;-69
2023/10/21 04:06:34;;;;;;;15.10;9.70;;;;;;;13.33;76.35;96828.97;5006696;28;20229;-68
2023/10/21 04:09:01;;;;;;;16.43;9.03;;;;;;;13.49;75.66;96837.53;5008068;28;20229;-69
2023/10/21 04:11:28;;;;;;;14.87;9.67;;;;;;;13.33;75.98;96839.38;5007024;28;20207;-69
2023/10/21 04:13:55;;;;;;;18.47;9.80;;;;;;;13.32;75.54;96832.50;5007413;28;20229;-69
2023/10/21 04:16:22;;;;;;;17.07;10.03;;;;;;;13.05;75.46;96832.38;5007887;28;20288;-68
2023/10/21 04:18:49;;;;;;;16.67;9.23;;;;;;;13.13;75.19;96837.13;5006721;28;20204;-69
2023/10/21 04:21:16;;;;;;;12.60;8.73;;;;;;;12.97;74.45;96838.00;5007952;28;20887;-72
2023/10/21 04:23:43;;;;;;;12.73;8.10;;;;;;;12.86;74.68;96834.31;5006426;28;20214;-72
2023/10/21 04:26:10;;;;;;;15.70;8.73;;;;;;;12.88;75.23;96835.91;5006568;28;20198;-70
2023/10/21 04:28:37;;;;;;;15.77;8.77;;;;;;;12.77;75.35;96845.28;5006812;28;20298;-72
2023/10/21 04:31:04;;;;;;;13.33;7.70;;;;;;;12.80;75.17;96845.09;5007407;28;20232;-69
2023/10/21 04:33:31;;;;;;;13.17;8.23;;;;;;;12.83;75.38;96842.31;5007420;28;20197;-71
2023/10/21 04:35:58;;;;;;;16.93;8.83;;;;;;;12.70;75.25;96838.75;5006471;28;20229;-70
2023/10/21 04:38:26;;;;;;;13.13;7.60;;;;;;;12.48;75.16;96851.28;5007545;28;20202;-72
2023/10/21 04:40:53;;;;;;;15.33;8.40;;;;;;;12.52;74.91;96855.38;5006106;28;20195;-71
2023/10/21 04:43:20;;;;;;;12.37;8.10;;;;;;;12.42;75.75;96849.88;5007593;28;20196;-74
2023/10/21 04:45:47;;;;;;;15.07;7.27;;;;;;;12.36;75.71;96846.78;5006200;28;20763;-69
2023/10/21 04:48:14;;;;;;;14.57;8.33;;;;;;;12.21;76.37;96835.47;5007396;28;20748;-70
2023/10/21 04:50:41;;;;;;;16.53;9.23;;;;;;;12.39;76.08;96863.00;5005396;28;20291;-69
2023/10/21 04:53:09;;;;;;;17.37;9.23;;;;;;;12.43;76.29;96867.13;5006661;28;20654;-69
2023/10/21 04:55:36;;;;;;;13.13;9.30;;;;;;;12.37;76.79;96866.63;5008302;28;20226;-75
2023/10/21 04:58:04;;;;;;;17.23;9.93;;;;;;;12.25;78.19;96868.13;5010270;28;20228;-72
2023/10/21 05:00:31;;;;;;;16.20;9.13;;;;;;;12.31;78.04;96866.97;5011271;28;20198;-71
2023/10/21 05:02:58;;;;;;;15.47;8.70;;;;;;;12.24;77.81;96858.69;5009905;28;20231;-72
2023/10/21 05:05:26;;;;;;;19.03;9.70;;;;;;;12.35;78.03;96878.84;5008429;28;20706;-71
2023/10/21 05:07:53;;;;;;;16.80;9.33;;;;;;;12.33;77.40;96871.16;5001104;28;20273;-73
2023/10/21 05:10:21;;;;;;;14.63;7.93;;;;;;;12.27;77.85;96868.88;5010567;28;20263;-68
2023/10/21 05:12:48;;;;;;;13.20;7.30;;;;;;;12.20;77.57;96860.59;5011386;28;20243;-73
2023/10/21 05:15:15;;;;;;;15.53;8.70;;;;;;;12.36;77.96;96878.78;5009947;28;20238;-76
2023/10/21 05:17:42;;;;;;;13.63;8.80;;;;;;;12.57;77.30;96892.34;5010972;28;20256;-75
2023/10/21 05:20:10;;;;;;;13.83;9.17;;;;;;;12.62;76.97;96898.94;5005191;28;20203;-77
2023/10/21 05:22:37;;;;;;;11.80;8.10;;;;;;;12.27;78.36;96876.69;4999076;28;20566;-77
2023/10/21 05:25:06;;;;;;;14.20;8.10;;;;;;;12.15;78.48;96900.72;4999972;28;20200;-78
2023/10/21 05:27:34;;;;;;;11.07;7.77;;;;;;;12.26;78.88;96901.81;4999949;28;20200;-76
2023/10/21 05:30:03;;;;;;;17.27;8.47;;;;;;;12.23;79.31;96891.59;5006575;28;21119;-70
2023/10/21 05:32:31;;;;;;;13.73;9.07;;;;;;;12.62;77.83;96909.34;4989829;28;20197;-71
2023/10/21 05:34:58;;;;;;;18.17;9.00;;;;;;;12.54;77.09;96895.94;4991783;28;20225;-68
2023/10/21 05:37:26;;;;;;;14.00;9.07;;;;;;;12.66;77.94;96916.03;4989830;28;20225;-68
2023/10/21 05:39:53;;;;;;;15.17;9.47;;;;;;;12.62;77.61;96921.47;4992299;28;20198;-68
2023/10/21 05:42:20;;;;;;;15.83;9.87;;;;;;;12.84;77.51;96909.78;4990944;28;20212;-69
2023/10/21 05:44:47;;;;;;;16.00;9.60;;;;;;;13.11;76.67;96928.19;4994160;28;20203;-72
2023/10/21 05:47:15;;;;;;;16.60;8.53;;;;;;;13.22;75.84;96935.38;4992666;28;20197;-69
2023/10/21 05:49:43;;;;;;;13.63;9.63;;;;;;;13.20;76.24;96932.88;4992374;28;20786;-70
2023/10/21 05:52:10;;;;;;;14.30;8.70;;;;;;;13.12;76.99;96929.91;4996131;28;20240;-74
2023/10/21 05:54:37;;;;;;;11.50;9.30;;;;;;;13.22;76.79;96932.78;4993421;28;20202;-68
2023/10/21 05:57:05;;;;;;;15.10;9.33;;;;;;;13.28;76.74;96929.84;4991839;28;20213;-72
2023/10/21 05:59:32;;;;;;;14.30;9.97;;;;;;;13.48;76.27;96942.50;5000727;28;20596;-71
2023/10/21 06:01:59;;;;;;;14.47;10.13;;;;;;;13.70;76.00;96933.34;5008729;28;20218;-70
2023/10/21 06:04:26;;;;;;;14.37;10.07;;;;;;;13.51;76.42;96931.94;5009781;28;20193;-70
2023/10/21 06:06:56;;;;;;;16.43;10.43;;;;;;;13.60;76.66;96936.59;5000766;28;20230;-71
2023/10/21 06:09:25;;;;;;;14.87;11.30;;;;;;;13.54;76.12;96883.16;5000286;28;20213;-72
2023/10/21 06:11:53;;;;;;;18.70;11.30;;;;;;;13.83;75.77;96925.63;4999844;28;20203;-77
2023/10/21 06:14:22;;;;;;;15.07;9.53;;;;;;;14.00;76.20;96938.47;5005834;28;20226;-69
2023/10/21 06:16:58;;;;;;;16.57;10.00;;;;;;;14.02;76.44;96943.56;5007727;28;20220;-75
2023/10/21 06:19:29;;;;;;;16.23;10.60;;;;;;;14.21;75.60;96939.78;5011760;28;20205;-75
2023/10/21 06:21:58;;;;;;;16.80;10.30;;;;;;;14.29;75.94;96945.38;5006552;28;20264;-72
2023/10/21 06:24:25;;;;;;;13.60;10.00;;;;;;;14.38;75.64;96947.41;4990755;28;20658;-70
2023/10/21 06:26:52;;;;;;;18.67;10.90;;;;;;;14.03;76.29;96904.44;4990540;28;20200;-74
2023/10/21 06:29:19;;;;;;;18.13;10.50;;;;;;;14.30;76.05;96926.19;4989057;28;20295;-75
2023/10/21 06:31:46;;;;;;;17.17;10.83;;;;;;;14.58;76.40;96944.41;4989653;28;20238;-77
2023/10/21 06:34:13;;;;;;;16.93;10.77;;;;;;;14.69;75.64;96947.13;4988600;28;20298;-73
2023/10/21 06:36:40;;;;;;;16.57;10.10;;;;;;;14.87;75.32;96954.72;4989703;28;20224;-72
2023/10/21 06:39:07;;;;;;;16.37;10.80;;;;;;;15.07;75.01;96956.88;4988117;28;20228;-72
2023/10/21 06:41:35;;;;;;;19.73;10.90;;;;;;;15.18;74.71;96959.66;4988771;28;20232;-69
2023/10/21 06:44:04;;;;;;;17.17;10.57;;;;;;;15.17;74.31;96929.25;4987390;28;20747;-70
2023/10/21 06:46:32;;;;;;;18.47;9.67;;;;;;;15.51;74.13;96957.47;4988741;28;20207;-70
2023/10/21 06:48:59;;;;;;;14.30;9.47;;;;;;;15.67;72.92;96963.31;4989370;28;20280;-80
2023/10/21 06:51:29;;;;;;;19.23;10.03;;;;;;;15.85;72.55;96958.63;4987848;28;20196;-73
2023/10/21 06:53:56;;;;;;;16.70;9.47;;;;;;;15.77;72.46;96938.25;4989151;28;20192;-73
2023/10/21 06:56:23;;;;;;;13.43;8.60;;;;;;;16.11;71.72;96958.53;4987468;28;20231;-72
2023/10/21 06:58:52;;;;;;;14.73;8.43;;;;;;;16.43;71.20;96958.88;4989411;28;20236;-72
2023/10/21 07:01:19;;;;;;;15.23;8.77;;;;;;;16.51;70.87;96966.22;4986581;28;20193;-74
2023/10/21 07:03:47;;;;;;;17.03;10.03;;;;;;;16.49;70.72;96970.69;4988739;28;20198;-69
2023/10/21 07:06:16;;;;;;;15.17;8.90;;;;;;;16.61;70.59;96962.84;4988679;28;20200;-73
2023/10/21 07:08:43;;;;;;;12.13;8.27;;;;;;;16.74;70.31;96953.19;4987041;28;20274;-75
2023/10/21 07:11:11;;;;;;;13.13;8.50;;;;;;;17.06;69.42;96963.97;4988679;28;20293;-74
2023/10/21 07:13:42;;;;;;;14.63;9.20;;;;;;;17.14;69.07;96964.25;4985975;28;20243;-72
2023/10/21 07:16:12;;;;;;;16.37;8.70;;;;;;;17.20;68.83;96974.25;4988722;28;20291;-81
2023/10/21 07:18:42;;;;;;;16.47;8.73;;;;;;;17.26;69.10;96971.19;4986376;28;20210;-81
2023/10/21 07:21:09;;;;;;;12.87;7.77;;;;;;;17.33;68.77;96967.16;4988170;28;20198;-76
2023/10/21 07:23:36;;;;;;;15.23;8.13;;;;;;;17.49;68.40;96973.00;4987983;28;20213;-75
2023/10/21 07:26:04;;;;;;;12.40;8.13;;;;;;;17.58;67.99;96967.03;4986937;28;20205;-72
2023/10/21 07:28:33;;;;;;;13.57;7.60;;;;;;;17.80;67.13;96972.34;4988783;28;20283;-70
2023/10/21 07:31:01;;;;;;;10.77;7.97;;;;;;;17.83;67.00;96955.56;4986887;28;20604;-71
2023/10/21 07:33:29;;;;;;;15.20;8.87;;;;;;;17.95;66.83;96969.53;4988245;28;20293;-75
2023/10/21 07:35:56;;;;;;;17.10;8.77;;;;;;;18.13;65.97;96963.72;4987081;28;20236;-74
2023/10/21 07:38:24;;;;;;;16.33;7.07;;;;;;;18.19;65.49;96960.63;4991384;28;20206;-77
2023/10/21 07:41:08;;;;;;;15.67;8.13;;;;;;;18.34;64.88;96956.78;5004762;28;20230;-69
2023/10/21 07:43:36;;;;;;;16.70;9.23;;;;;;;18.51;64.19;96955.50;5004947;28;20238;-69
2023/10/21 07:46:03;;;;;;;17.40;8.37;;;;;;;18.70;64.35;96958.34;5007009;28;20305;-69
2023/10/21 07:48:31;;;;;;;16.10;8.23;;;;;;;18.85;63.35;96948.41;5000216;28;20588;-69
2023/10/21 07:50:58;;;;;;;25.60;7.70;;;;;;;19.16;62.67;96953.72;5007475;28;20448;-70
2023/10/21 07:53:25;;;;;;;21.63;7.47;;;;;;;19.29;62.80;96954.34;5006366;28;20210;-77
2023/10/21 07:55:54;;;;;;;10.60;7.50;;;;;;;19.51;61.05;96948.22;5006910;28;20237;-73
2023/10/21 07:58:56;;;;;;;15.10;7.53;;;;;;;19.55;60.60;96940.91;5005716;28;20216;-75
2023/10/21 08:01:54;;;;;;;10.53;6.00;;;;;;;19.79;60.08;96965.97;5003221;28;20261;-74
2023/10/21 08:05:42;;;;;;;15.80;7.33;;;;;;;19.48;59.49;96919.56;4968702;28;20198;-73
2023/10/21 08:08:27;;;;;;;12.90;6.57;;;;;;;19.90;59.48;96939.63;5004606;28;20742;-73
2023/10/21 08:11:03;;;;;;;11.93;6.03;;;;;;;20.09;59.06;96946.78;4987257;28;20187;-73
2023/10/21 08:13:32;;;;;;;10.60;5.40;;;;;;;19.94;58.43;96885.84;5005973;28;20227;-73
2023/10/21 08:15:59;;;;;;;16.20;7.07;;;;;;;20.44;58.01;96947.25;5005447;28;20223;-69
2023/10/21 08:18:26;;;;;;;14.13;8.17;;;;;;;20.54;57.88;96958.66;5005299;28;20739;-70
2023/10/21 08:20:53;;;;;;;9.93;6.20;;;;;;;20.67;57.10;96951.34;5007035;28;20204;-68
2023/10/21 08:23:20;;;;;;;11.73;6.30;;;;;;;20.87;56.45;96949.59;5005699;28;20231;-69
2023/10/21 08:25:47;;;;;;;11.60;7.43;;;;;;;20.82;56.29;96950.00;5006854;28;20618;-77
2023/10/21 08:28:14;;;;;;;10.00;5.80;;;;;;;20.91;55.85;96943.94;5006237;28;20230;-72
2023/10/21 08:30:42;;;;;;;10.13;7.40;;;;;;;21.11;55.21;96938.72;5004802;28;20196;-75
2023/10/21 08:33:09;;;;;;;10.87;5.47;;;;;;;21.29;54.52;96947.63;5006659;28;20559;-72
2023/10/21 08:35:36;;;;;;;9.03;6.97;;;;;;;21.36;54.22;96951.34;5020113;28;20226;-74
2023/10/21 08:38:06;;;;;;;9.70;5.87;;;;;;;21.58;53.85;96956.31;5006587;28;20668;-73
2023/10/21 08:40:37;;;;;;;10.30;5.83;;;;;;;21.69;53.77;96951.75;5005326;28;20282;-74
2023/10/21 08:43:05;;;;;;;12.13;6.80;;;;;;;21.71;53.38;96941.91;5006173;28;20203;-70
2023/10/21 08:45:34;;;;;;;19.23;7.30;;;;;;;21.82;52.98;96941.75;5005939;28;20205;-72
2023/10/21 08:48:03;;;;;;;14.93;6.60;;;;;;;22.01;52.66;96950.63;5006375;28;20206;-72
2023/10/21 08:50:35;;;;;;;11.30;5.53;;;;;;;22.04;51.91;96932.72;5006097;28;20779;-70
2023/10/21 08:53:05;;;;;;;13.63;6.27;;;;;;;22.11;51.80;96928.53;5004821;28;20204;-77
2023/10/21 08:55:35;;;;;;;14.00;6.20;;;;;;;22.21;51.21;96942.53;5006173;28;20233;-73
2023/10/21 08:58:02;;;;;;;9.23;5.43;;;;;;;22.36;50.52;96934.97;5004963;28;20657;-71
2023/10/21 09:00:30;;;;;;;10.77;5.10;;;;;;;22.44;49.86;96935.06;5006471;28;20185;-70
2023/10/21 09:02:57;;;;;;;12.13;4.97;;;;;;;22.56;50.12;96928.63;5005720;28;20207;-71
2023/10/21 09:05:24;;;;;;;15.30;5.07;;;;;;;22.64;48.69;96920.84;5005921;28;20286;-72
2023/10/21 09:07:51;;;;;;;9.87;4.93;;;;;;;22.92;47.92;96935.66;5006479;28;20685;-71
2023/10/21 09:10:18;;;;;;;7.63;3.93;;;;;;;23.11;46.77;96934.72;5004962;28;20202;-69
2023/10/21 09:12:46;;;;;;;11.37;4.33;;;;;;;23.25;45.85;96924.47;5006466;28;20209;-71
2023/10/21 09:15:13;;;;;;;8.97;3.77;;;;;;;23.48;44.31;96927.50;5004905;28;20262;-70
2023/10/21 09:17:45;;;;;;;10.77;5.23;;;;;;;23.58;43.60;96928.25;5005118;28;20685;-70
2023/10/21 09:20:15;;;;;;;7.97;3.30;;;;;;;23.69;43.18;96929.81;5004002;28;20754;-75
2023/10/21 09:22:49;;;;;;;16.73;8.50;;;;;;;23.83;42.48;96921.31;5005607;28;20230;-69
2023/10/21 09:25:20;;;;;;;11.17;4.80;;;;;;;24.01;43.11;96925.59;5006025;28;20205;-72
2023/10/21 09:27:53;;;;;;;7.23;3.73;;;;;;;23.79;42.67;96870.56;5004739;28;20199;-68
2023/10/21 09:30:23;;;;;;;6.83;3.80;;;;;;;24.01;41.78;96893.84;5006093;28;20234;-72
2023/10/21 09:32:51;;;;;;;4.43;3.20;;;;;;;24.38;40.33;96913.94;5003528;28;20215;-70
2023/10/21 09:35:30;;;;;;;7.50;3.70;;;;;;;24.58;39.85;96908.22;5004657;28;20239;-73
2023/10/21 09:38:14;;;;;;;12.60;4.03;;;;;;;24.64;38.22;96886.41;5005892;28;20627;-69
2023/10/21 09:40:42;;;;;;;7.40;3.50;;;;;;;24.89;37.76;96892.63;5003317;28;20198;-69
2023/10/21 09:43:12;;;;;;;8.70;4.07;;;;;;;25.14;36.68;96889.03;5009474;28;20206;-68
2023/10/21 09:45:44;;;;;;;9.27;4.77;;;;;;;25.46;36.12;96901.50;5004500;28;20246;-68
2023/10/21 09:48:12;;;;;;;11.93;4.35;;;;;;;25.53;35.46;96887.41;5007150;28;20439;-71
2023/10/21 09:50:49;;;;;;;9.47;3.10;;;;;;;25.67;35.30;96902.69;5008721;28;20282;-69
2023/10/21 09:53:24;;;;;;;12.97;3.07;;;;;;;25.75;34.48;96894.72;5008489;28;20206;-68
2023/10/21 09:55:53;;;;;;;8.10;3.23;;;;;;;25.51;34.50;96844.31;5009618;28;20214;-68
2023/10/21 09:58:22;;;;;;;7.23;3.10;;;;;;;25.86;34.18;96890.06;4990256;28;20201;-69
2023/10/21 10:00:49;;;;;;;7.17;3.10;;;;;;;25.81;34.77;96870.16;4995133;28;20567;-69
2023/10/21 10:03:19;;;;;;;8.10;3.07;;;;;;;26.06;33.70;96880.72;4993748;28;20199;-68
2023/10/21 10:05:48;;;;;;;7.37;2.93;;;;;;;25.98;33.84;96854.22;5029265;28;20719;-68
2023/10/21 10:08:16;;;;;;;9.00;4.00;;;;;;;25.97;33.41;96853.38;5028958;28;20194;-68
2023/10/21 10:10:47;;;;;;;6.57;3.23;;;;;;;26.25;32.97;96875.06;5026550;28;20205;-69
2023/10/21 10:13:15;;;;;;;5.90;3.50;;;;;;;26.25;32.76;96856.47;5028718;28;20262;-70
2023/10/21 10:15:43;;;;;;;11.63;5.83;;;;;;;26.32;32.64;96841.50;5027543;28;20210;-71
2023/10/21 10:18:23;;;;;;;8.37;3.73;;;;;;;26.60;31.87;96875.41;5029030;28;20187;-72
2023/10/21 10:20:52;;;;;;;8.27;3.07;;;;;;;26.72;32.16;96878.56;5028244;28;20698;-70
2023/10/21 10:23:24;;;;;;;6.93;3.00;;;;;;;26.63;31.63;96869.75;5028860;28;20203;-69
2023/10/21 10:25:54;;;;;;;9.50;2.97;;;;;;;26.66;31.71;96863.28;5028867;28;20650;-69
2023/10/21 10:28:27;;;;;;;7.10;3.10;;;;;;;26.39;31.52;96807.97;5025595;28;20241;-71
2023/10/21 10:31:00;;;;;;;9.90;2.67;;;;;;;26.44;31.63;96802.97;5027547;28;20233;-69
2023/10/21 10:33:28;;;;;;;10.53;2.90;;;;;;;26.95;31.03;96863.50;5027433;28;20639;-72
2023/10/21 10:35:57;;;;;;;8.43;3.23;;;;;;;26.96;31.49;96848.34;5028587;28;20214;-71
2023/10/21 10:38:27;;;;;;;9.30;3.10;;;;;;;27.17;30.94;96856.50;5027104;28;20599;-70
2023/10/21 10:41:14;;;;;;;10.43;4.43;;;;;;;27.21;31.01;96853.31;5028058;28;20194;-70
2023/10/21 10:43:49;;;;;;;11.27;3.37;;;;;;;27.28;30.84;96848.97;5028089;28;20195;-70
2023/10/21 10:46:17;;;;;;;11.17;3.27;;;;;;;27.20;30.93;96846.34;5027081;28;20227;-70
2023/10/21 10:48:46;;;;;;;9.07;3.20;;;;;;;27.38;30.63;96846.91;5028402;28;20222;-69
2023/10/21 10:51:17;;;;;;;9.10;3.70;;;;;;;27.38;30.54;96844.25;5027683;28;20670;-77
2023/10/21 10:53:55;;;;;;;9.50;3.37;;;;;;;27.40;30.41;96841.41;5026835;28;20201;-72
2023/10/21 10:56:25;;;;;;;5.57;2.90;;;;;;;27.35;30.66;96833.13;5028429;28;20230;-72
2023/10/21 10:58:52;;;;;;;9.30;2.60;;;;;;;27.49;30.19;96844.84;5027057;28;20210;-75
2023/10/21 11:01:25;;;;;;;9.07;2.40;;;;;;;27.47;30.35;96825.56;5028550;28;20202;-72
2023/10/21 11:04:01;;;;;;;12.50;4.10;;;;;;;27.62;30.01;96831.72;5025418;28;20194;-71
2023/10/21 11:06:44;;;;;;;12.37;4.50;;;;;;;27.71;29.25;96833.31;5027709;28;20272;-73
2023/10/21 11:09:17;;;;;;;10.50;2.40;;;;;;;27.64;29.11;96827.88;5026478;28;20191;-73
2023/10/21 11:11:45;;;;;;;10.30;3.67;;;;;;;27.88;29.14;96826.81;5026976;28;20231;-74
2023/10/21 11:14:26;;;;;;;9.80;3.30;;;;;;;27.87;28.63;96822.50;5026335;28;20226;-71
2023/10/21 11:16:55;;;;;;;5.57;1.93;;;;;;;27.90;28.91;96832.78;5026957;28;20741;-72
2023/10/21 11:19:25;;;;;;;10.13;3.17;;;;;;;27.99;28.67;96834.38;5027643;28;20831;-72
2023/10/21 11:21:52;;;;;;;8.97;2.63;;;;;;;28.04;28.77;96829.34;5027840;28;20226;-72
2023/10/21 11:24:19;;;;;;;12.40;4.27;;;;;;;28.05;28.44;96823.81;5026874;28;20191;-72
2023/10/21 11:26:49;;;;;;;5.20;2.90;;;;;;;28.05;28.91;96833.63;5027990;28;20213;-73
2023/10/21 11:29:17;;;;;;;8.33;2.93;;;;;;;27.94;28.39;96812.78;5026207;28;20221;-74
2023/10/21 11:31:45;;;;;;;7.60;3.47;;;;;;;28.20;27.91;96826.47;5028147;28;20209;-79
2023/10/21 11:34:14;;;;;;;4.83;2.30;;;;;;;28.30;27.79;96824.38;5026626;28;20689;-73
2023/10/21 11:36:46;;;;;;;6.13;2.50;;;;;;;27.91;27.94;96773.19;5027748;28;20547;-72